TAP1311 EGCC-LPPT
Flight info
| Callsign | TAP1311 |
|---|---|
| Flight time | 2h 22m |
| Altitude | 36000 |
| Route | KUXEM P17 BEPHE DCT OSSEP DCT OXCUD DCT ELNIF DCT ZESPE DCT KLAKI DCT ANNET/N0451F370 DCT EKVEB DCT KORUL DCT ASPOR DCT ABLEG DCT XAMAX |
| Aircraft | A320/M-SDE3FGHIRWY/LB1 |
Departure
| Time | 2026-05-04 15:26 |
|---|---|
| Airport | Manchester Airport (EGCC) |
Arrival
| Time | 2026-05-04 17:49 |
|---|---|
| Airport | Lisbon Humberto Delgado Airport (LPPT) |
| Time | Latitude | Longitude | Altitude | Speed | Heading |
|---|---|---|---|---|---|
| 2026-05-04 14:52 | 53.36859 | -2.28833 | 255 ft | 0 kts | 135° |
| 2026-05-04 14:52 | 53.36865 | -2.28843 | 255 ft | 0 kts | 135° |
| 2026-05-04 15:08 | 53.36877 | -2.28862 | 255 ft | 3 kts | 135° |
| 2026-05-04 15:08 | 53.36893 | -2.28884 | 255 ft | 4 kts | 176° |
| 2026-05-04 15:08 | 53.36911 | -2.28868 | 255 ft | 4 kts | 228° |
| 2026-05-04 15:09 | 53.36916 | -2.28859 | 255 ft | 4 kts | 224° |
| 2026-05-04 15:09 | 53.36896 | -2.28891 | 255 ft | 4 kts | 224° |
| 2026-05-04 15:09 | 53.36877 | -2.28923 | 255 ft | 4 kts | 224° |
| 2026-05-04 15:10 | 53.36872 | -2.28932 | 255 ft | 2 kts | 225° |
| 2026-05-04 15:13 | 53.36868 | -2.28939 | 255 ft | 2 kts | 225° |
| 2026-05-04 15:13 | 53.36850 | -2.28968 | 255 ft | 4 kts | 224° |
| 2026-05-04 15:13 | 53.36809 | -2.29017 | 255 ft | 12 kts | 207° |
| 2026-05-04 15:14 | 53.36733 | -2.29018 | 255 ft | 11 kts | 144° |
| 2026-05-04 15:14 | 53.36678 | -2.28931 | 255 ft | 12 kts | 137° |
| 2026-05-04 15:14 | 53.36610 | -2.28857 | 255 ft | 11 kts | 133° |
| 2026-05-04 15:14 | 53.36571 | -2.28717 | 255 ft | 15 kts | 117° |
| 2026-05-04 15:15 | 53.36503 | -2.28586 | 255 ft | 15 kts | 134° |
| 2026-05-04 15:15 | 53.36433 | -2.28467 | 255 ft | 14 kts | 134° |
| 2026-05-04 15:15 | 53.36361 | -2.28346 | 255 ft | 14 kts | 135° |
| 2026-05-04 15:16 | 53.36339 | -2.28310 | 255 ft | 1 kts | 136° |
| 2026-05-04 15:16 | 53.36311 | -2.28263 | 255 ft | 10 kts | 135° |
| 2026-05-04 15:16 | 53.36191 | -2.28061 | 255 ft | 15 kts | 135° |
| 2026-05-04 15:17 | 53.36121 | -2.27943 | 255 ft | 14 kts | 135° |
| 2026-05-04 15:17 | 53.35994 | -2.27834 | 255 ft | 7 kts | 183° |
| 2026-05-04 15:17 | 53.35936 | -2.27841 | 255 ft | 11 kts | 183° |
| 2026-05-04 15:18 | 53.35856 | -2.27802 | 255 ft | 12 kts | 144° |
| 2026-05-04 15:18 | 53.35800 | -2.27709 | 255 ft | 10 kts | 134° |
| 2026-05-04 15:18 | 53.35768 | -2.27671 | 255 ft | 6 kts | 149° |
| 2026-05-04 15:19 | 53.35681 | -2.27602 | 256 ft | 6 kts | 146° |
| 2026-05-04 15:19 | 53.35654 | -2.27571 | 256 ft | 4 kts | 144° |
| 2026-05-04 15:19 | 53.35584 | -2.27478 | 256 ft | 0 kts | 141° |
| 2026-05-04 15:22 | 53.35550 | -2.27432 | 255 ft | 10 kts | 141° |
| 2026-05-04 15:22 | 53.35353 | -2.27195 | 248 ft | 23 kts | 167° |
| 2026-05-04 15:23 | 53.35219 | -2.27227 | 245 ft | 17 kts | 193° |
| 2026-05-04 15:23 | 53.35147 | -2.27254 | 244 ft | 9 kts | 193° |
| 2026-05-04 15:23 | 53.35054 | -2.27291 | 242 ft | 18 kts | 194° |
| 2026-05-04 15:23 | 53.34962 | -2.27417 | 238 ft | 7 kts | 231° |
| 2026-05-04 15:24 | 53.34893 | -2.27562 | 233 ft | 18 kts | 231° |
| 2026-05-04 15:24 | 53.34853 | -2.27644 | 233 ft | 0 kts | 231° |
| 2026-05-04 15:25 | 53.34851 | -2.27648 | 233 ft | 4 kts | 231° |
| 2026-05-04 15:25 | 53.34742 | -2.27871 | 230 ft | 58 kts | 230° |
| 2026-05-04 15:26 | 53.33717 | -2.29994 | 226 ft | 166 kts | 230° |
| 2026-05-04 15:26 | 53.32970 | -2.31517 | 822 ft | 168 kts | 232° |
| 2026-05-04 15:26 | 53.31788 | -2.34840 | 2164 ft | 175 kts | 265° |
| 2026-05-04 15:27 | 53.31951 | -2.36960 | 2462 ft | 196 kts | 284° |
| 2026-05-04 15:27 | 53.32614 | -2.41955 | 3145 ft | 244 kts | 272° |
| 2026-05-04 15:28 | 53.31809 | -2.47697 | 4615 ft | 262 kts | 253° |
| 2026-05-04 15:28 | 53.31274 | -2.50630 | 5491 ft | 265 kts | 253° |
| 2026-05-04 15:28 | 53.30172 | -2.56598 | 7162 ft | 272 kts | 253° |
| 2026-05-04 15:29 | 53.29556 | -2.59601 | 7988 ft | 275 kts | 249° |
| 2026-05-04 15:30 | 53.24315 | -2.69119 | 10594 ft | 313 kts | 215° |
| 2026-05-04 15:30 | 53.18575 | -2.75735 | 12207 ft | 344 kts | 216° |
| 2026-05-04 15:31 | 53.14633 | -2.80273 | 13669 ft | 349 kts | 215° |
| 2026-05-04 15:31 | 53.12626 | -2.82580 | 14297 ft | 352 kts | 215° |
| 2026-05-04 15:32 | 53.05827 | -2.87228 | 16087 ft | 363 kts | 184° |
| 2026-05-04 15:32 | 53.00751 | -2.86423 | 17250 ft | 370 kts | 171° |
| 2026-05-04 15:33 | 52.95659 | -2.85030 | 18457 ft | 375 kts | 171° |
| 2026-05-04 15:34 | 52.87847 | -2.82912 | 19982 ft | 383 kts | 170° |
| 2026-05-04 15:34 | 52.85203 | -2.82197 | 20467 ft | 386 kts | 170° |
| 2026-05-04 15:34 | 52.79884 | -2.80762 | 21409 ft | 392 kts | 169° |
| 2026-05-04 15:35 | 52.75378 | -2.79550 | 22183 ft | 396 kts | 169° |
| 2026-05-04 15:35 | 52.72639 | -2.78822 | 22633 ft | 399 kts | 170° |
| 2026-05-04 15:35 | 52.69889 | -2.78095 | 23162 ft | 400 kts | 170° |
| 2026-05-04 15:36 | 52.64388 | -2.76629 | 24004 ft | 405 kts | 170° |
| 2026-05-04 15:36 | 52.61590 | -2.75976 | 24360 ft | 408 kts | 175° |
| 2026-05-04 15:36 | 52.58725 | -2.75980 | 24702 ft | 412 kts | 182° |
| 2026-05-04 15:37 | 52.55857 | -2.76232 | 25039 ft | 414 kts | 181° |
| 2026-05-04 15:37 | 52.52966 | -2.76491 | 25371 ft | 417 kts | 181° |
| 2026-05-04 15:37 | 52.50051 | -2.76753 | 25696 ft | 420 kts | 181° |
| 2026-05-04 15:37 | 52.47161 | -2.77008 | 26104 ft | 420 kts | 182° |
| 2026-05-04 15:38 | 52.44238 | -2.77264 | 26546 ft | 420 kts | 182° |
| 2026-05-04 15:38 | 52.41311 | -2.77517 | 26904 ft | 422 kts | 182° |
| 2026-05-04 15:38 | 52.38368 | -2.77768 | 27230 ft | 424 kts | 182° |
| 2026-05-04 15:38 | 52.35407 | -2.78021 | 27549 ft | 426 kts | 182° |
| 2026-05-04 15:39 | 52.32468 | -2.78271 | 27861 ft | 429 kts | 182° |
| 2026-05-04 15:39 | 52.29480 | -2.78526 | 28175 ft | 431 kts | 182° |
| 2026-05-04 15:39 | 52.23443 | -2.79043 | 28816 ft | 435 kts | 182° |
| 2026-05-04 15:40 | 52.20412 | -2.79307 | 29158 ft | 436 kts | 182° |
| 2026-05-04 15:40 | 52.17364 | -2.79571 | 29451 ft | 438 kts | 182° |
| 2026-05-04 15:40 | 52.14306 | -2.79832 | 29729 ft | 440 kts | 182° |
| 2026-05-04 15:40 | 52.11235 | -2.80091 | 30007 ft | 442 kts | 182° |
| 2026-05-04 15:41 | 52.08146 | -2.80350 | 30259 ft | 444 kts | 182° |
| 2026-05-04 15:41 | 52.05079 | -2.80605 | 30482 ft | 446 kts | 182° |
| 2026-05-04 15:41 | 52.01971 | -2.80866 | 30705 ft | 448 kts | 182° |
| 2026-05-04 15:41 | 51.98858 | -2.81127 | 31062 ft | 446 kts | 182° |
| 2026-05-04 15:42 | 51.95764 | -2.81388 | 31480 ft | 443 kts | 182° |
| 2026-05-04 15:42 | 51.92688 | -2.81649 | 31816 ft | 442 kts | 182° |
| 2026-05-04 15:42 | 51.89604 | -2.81917 | 32143 ft | 442 kts | 182° |
| 2026-05-04 15:42 | 51.86568 | -2.82179 | 32455 ft | 441 kts | 182° |
| 2026-05-04 15:43 | 51.83503 | -2.82533 | 32765 ft | 441 kts | 184° |
| 2026-05-04 15:43 | 51.80442 | -2.83084 | 33096 ft | 441 kts | 186° |
| 2026-05-04 15:43 | 51.77400 | -2.83771 | 33445 ft | 441 kts | 187° |
| 2026-05-04 15:43 | 51.74369 | -2.84512 | 33813 ft | 439 kts | 187° |
| 2026-05-04 15:44 | 51.71343 | -2.85252 | 34133 ft | 438 kts | 187° |
| 2026-05-04 15:44 | 51.68358 | -2.85955 | 34371 ft | 438 kts | 187° |
| 2026-05-04 15:44 | 51.65331 | -2.86632 | 34610 ft | 438 kts | 186° |
| 2026-05-04 15:44 | 51.62300 | -2.87278 | 34847 ft | 438 kts | 186° |
| 2026-05-04 15:45 | 51.59274 | -2.87911 | 35069 ft | 438 kts | 186° |
| 2026-05-04 15:45 | 51.56248 | -2.88543 | 35287 ft | 438 kts | 186° |
| 2026-05-04 15:45 | 51.53212 | -2.89176 | 35501 ft | 438 kts | 186° |
| 2026-05-04 15:45 | 51.50181 | -2.89808 | 35669 ft | 439 kts | 186° |
| 2026-05-04 15:46 | 51.47184 | -2.90436 | 35846 ft | 440 kts | 186° |
| 2026-05-04 15:46 | 51.44144 | -2.91079 | 36033 ft | 440 kts | 186° |
| 2026-05-04 15:46 | 51.41103 | -2.91721 | 36246 ft | 440 kts | 187° |
| 2026-05-04 15:46 | 51.38062 | -2.92361 | 36430 ft | 440 kts | 186° |
| 2026-05-04 15:47 | 51.35022 | -2.93001 | 36593 ft | 440 kts | 186° |
| 2026-05-04 15:47 | 51.31988 | -2.93644 | 36783 ft | 440 kts | 186° |
| 2026-05-04 15:47 | 51.28951 | -2.94285 | 36959 ft | 440 kts | 187° |
| 2026-05-04 15:48 | 51.22913 | -2.95551 | 37015 ft | 440 kts | 187° |
| 2026-05-04 15:48 | 51.13797 | -2.97456 | 37014 ft | 440 kts | 187° |
| 2026-05-04 15:49 | 51.07754 | -2.98718 | 37012 ft | 439 kts | 187° |
| 2026-05-04 15:49 | 51.01679 | -2.99974 | 37011 ft | 440 kts | 187° |
| 2026-05-04 15:50 | 50.95596 | -3.01226 | 37010 ft | 440 kts | 187° |
| 2026-05-04 15:50 | 50.89519 | -3.02483 | 37006 ft | 440 kts | 187° |
| 2026-05-04 15:51 | 50.83487 | -3.03729 | 37009 ft | 439 kts | 187° |
| 2026-05-04 15:51 | 50.77398 | -3.04981 | 37006 ft | 439 kts | 187° |
| 2026-05-04 15:52 | 50.71362 | -3.06220 | 37001 ft | 439 kts | 187° |
| 2026-05-04 15:52 | 50.65294 | -3.07456 | 37001 ft | 439 kts | 187° |
| 2026-05-04 15:53 | 50.59226 | -3.08702 | 37010 ft | 439 kts | 187° |
| 2026-05-04 15:53 | 50.53156 | -3.09935 | 37018 ft | 439 kts | 187° |
| 2026-05-04 15:54 | 50.47136 | -3.11153 | 37018 ft | 438 kts | 187° |
| 2026-05-04 15:54 | 50.41080 | -3.12419 | 37012 ft | 438 kts | 191° |
| 2026-05-04 15:55 | 50.35405 | -3.15654 | 37015 ft | 438 kts | 210° |
| 2026-05-04 15:55 | 50.30493 | -3.21324 | 37011 ft | 438 kts | 217° |
| 2026-05-04 15:56 | 50.25693 | -3.27229 | 36990 ft | 439 kts | 217° |
| 2026-05-04 15:56 | 50.20902 | -3.33084 | 37000 ft | 440 kts | 217° |
| 2026-05-04 15:57 | 50.16056 | -3.38977 | 37008 ft | 441 kts | 217° |
| 2026-05-04 15:57 | 50.11207 | -3.44870 | 37001 ft | 441 kts | 217° |
| 2026-05-04 15:58 | 50.06369 | -3.50743 | 37002 ft | 440 kts | 217° |
| 2026-05-04 15:58 | 50.01524 | -3.56603 | 36999 ft | 440 kts | 217° |
| 2026-05-04 15:59 | 49.96712 | -3.62415 | 37005 ft | 440 kts | 217° |
| 2026-05-04 15:59 | 49.91856 | -3.68268 | 37004 ft | 441 kts | 217° |
| 2026-05-04 16:00 | 49.87005 | -3.74090 | 37010 ft | 441 kts | 217° |
| 2026-05-04 16:00 | 49.82173 | -3.79861 | 37013 ft | 441 kts | 217° |
| 2026-05-04 16:01 | 49.77302 | -3.85680 | 37015 ft | 441 kts | 217° |
| 2026-05-04 16:01 | 49.72440 | -3.91478 | 37007 ft | 441 kts | 216° |
| 2026-05-04 16:02 | 49.67595 | -3.97213 | 37014 ft | 441 kts | 216° |
| 2026-05-04 16:02 | 49.62310 | -4.01947 | 37013 ft | 438 kts | 201° |
| 2026-05-04 16:03 | 49.59493 | -4.03742 | 37009 ft | 438 kts | 201° |
| 2026-05-04 16:03 | 49.53882 | -4.07305 | 37011 ft | 438 kts | 201° |
| 2026-05-04 16:04 | 49.48233 | -4.10875 | 37005 ft | 439 kts | 201° |
| 2026-05-04 16:04 | 49.39744 | -4.16225 | 37007 ft | 439 kts | 201° |
| 2026-05-04 16:05 | 49.34089 | -4.19789 | 37002 ft | 439 kts | 201° |
| 2026-05-04 16:06 | 49.25622 | -4.25100 | 37003 ft | 439 kts | 201° |
| 2026-05-04 16:07 | 49.14305 | -4.32170 | 37009 ft | 439 kts | 201° |
| 2026-05-04 16:08 | 49.03028 | -4.39176 | 37010 ft | 438 kts | 201° |
| 2026-05-04 16:09 | 48.88903 | -4.47903 | 36997 ft | 440 kts | 201° |
| 2026-05-04 16:10 | 48.77559 | -4.54875 | 36996 ft | 440 kts | 201° |
| 2026-05-04 16:11 | 48.66174 | -4.61850 | 36997 ft | 441 kts | 201° |
| 2026-05-04 16:12 | 48.49127 | -4.72202 | 37002 ft | 440 kts | 201° |
| 2026-05-04 16:13 | 48.37746 | -4.79070 | 37000 ft | 440 kts | 201° |
| 2026-05-04 16:14 | 48.26397 | -4.85905 | 37002 ft | 440 kts | 201° |
| 2026-05-04 16:16 | 48.12199 | -4.94401 | 37001 ft | 439 kts | 201° |
| 2026-05-04 16:17 | 47.98027 | -5.02823 | 37002 ft | 438 kts | 201° |
| 2026-05-04 16:18 | 47.86670 | -5.09539 | 37010 ft | 438 kts | 201° |
| 2026-05-04 16:19 | 47.72501 | -5.17869 | 36996 ft | 439 kts | 200° |
| 2026-05-04 16:20 | 47.58308 | -5.26175 | 36996 ft | 439 kts | 200° |
| 2026-05-04 16:22 | 47.45025 | -5.33896 | 36999 ft | 439 kts | 200° |
| 2026-05-04 16:23 | 47.27964 | -5.43767 | 36999 ft | 440 kts | 200° |
| 2026-05-04 16:25 | 47.10846 | -5.53566 | 36988 ft | 440 kts | 201° |
| 2026-05-04 16:26 | 46.90857 | -5.64968 | 36997 ft | 440 kts | 201° |
| 2026-05-04 16:28 | 46.76561 | -5.73060 | 36992 ft | 441 kts | 201° |
| 2026-05-04 16:29 | 46.56523 | -5.84463 | 36980 ft | 443 kts | 203° |
| 2026-05-04 16:31 | 46.42497 | -5.93642 | 36989 ft | 442 kts | 204° |
| 2026-05-04 16:32 | 46.25648 | -6.04348 | 36988 ft | 444 kts | 204° |
| 2026-05-04 16:33 | 46.14308 | -6.11520 | 36991 ft | 444 kts | 204° |
| 2026-05-04 16:34 | 46.05844 | -6.16844 | 36991 ft | 444 kts | 204° |
| 2026-05-04 16:35 | 45.88858 | -6.27507 | 36997 ft | 444 kts | 204° |
| 2026-05-04 16:36 | 45.80346 | -6.32804 | 36990 ft | 444 kts | 204° |
| 2026-05-04 16:37 | 45.71843 | -6.38091 | 36984 ft | 445 kts | 204° |
| 2026-05-04 16:38 | 45.60475 | -6.45127 | 36984 ft | 446 kts | 204° |
| 2026-05-04 16:39 | 45.46228 | -6.53895 | 36996 ft | 445 kts | 204° |
| 2026-05-04 16:40 | 45.34889 | -6.60871 | 36998 ft | 445 kts | 204° |
| 2026-05-04 16:41 | 45.20613 | -6.69574 | 37000 ft | 447 kts | 204° |
| 2026-05-04 16:43 | 45.06359 | -6.78209 | 37006 ft | 446 kts | 204° |
| 2026-05-04 16:43 | 44.97779 | -6.83397 | 37006 ft | 446 kts | 204° |
| 2026-05-04 16:45 | 44.80533 | -6.93189 | 36993 ft | 447 kts | 197° |
| 2026-05-04 16:46 | 44.65582 | -6.99213 | 37001 ft | 448 kts | 197° |
| 2026-05-04 16:47 | 44.53624 | -7.04013 | 37009 ft | 448 kts | 197° |
| 2026-05-04 16:48 | 44.41621 | -7.08825 | 37013 ft | 448 kts | 197° |
| 2026-05-04 16:49 | 44.29685 | -7.13575 | 37006 ft | 441 kts | 198° |
| 2026-05-04 16:50 | 44.17793 | -7.18298 | 37009 ft | 446 kts | 198° |
| 2026-05-04 16:51 | 44.08813 | -7.21846 | 37014 ft | 446 kts | 198° |
| 2026-05-04 16:52 | 43.96843 | -7.26555 | 37006 ft | 448 kts | 198° |
| 2026-05-04 16:53 | 43.87868 | -7.30069 | 37025 ft | 448 kts | 198° |
| 2026-05-04 16:54 | 43.75878 | -7.34775 | 37027 ft | 447 kts | 198° |
| 2026-05-04 16:55 | 43.57939 | -7.41728 | 37041 ft | 447 kts | 198° |
| 2026-05-04 16:56 | 43.42979 | -7.47527 | 37062 ft | 446 kts | 198° |
| 2026-05-04 16:57 | 43.34052 | -7.50959 | 37063 ft | 446 kts | 198° |
| 2026-05-04 16:58 | 43.22091 | -7.55548 | 37072 ft | 445 kts | 198° |
| 2026-05-04 17:00 | 43.04201 | -7.62365 | 37066 ft | 445 kts | 199° |
| 2026-05-04 17:01 | 42.89319 | -7.68025 | 37072 ft | 445 kts | 199° |
| 2026-05-04 17:02 | 42.77371 | -7.72547 | 37078 ft | 445 kts | 199° |
| 2026-05-04 17:03 | 42.68408 | -7.75922 | 37076 ft | 444 kts | 199° |
| 2026-05-04 17:03 | 42.59497 | -7.79265 | 37084 ft | 444 kts | 199° |
| 2026-05-04 17:04 | 42.47582 | -7.83706 | 37083 ft | 443 kts | 199° |
| 2026-05-04 17:05 | 42.35713 | -7.88138 | 37077 ft | 443 kts | 199° |
| 2026-05-04 17:06 | 42.26811 | -7.91441 | 37073 ft | 443 kts | 200° |
| 2026-05-04 17:07 | 42.19863 | -7.94015 | 37077 ft | 442 kts | 200° |
| 2026-05-04 17:07 | 42.11978 | -7.96943 | 37046 ft | 442 kts | 200° |
| 2026-05-04 17:08 | 42.03101 | -8.00212 | 37066 ft | 442 kts | 200° |
| 2026-05-04 17:09 | 41.98165 | -8.02018 | 37066 ft | 441 kts | 200° |
| 2026-05-04 17:09 | 41.92228 | -8.04189 | 37067 ft | 441 kts | 200° |
| 2026-05-04 17:10 | 41.77451 | -8.09532 | 37072 ft | 441 kts | 199° |
| 2026-05-04 17:11 | 41.71468 | -8.11448 | 37072 ft | 441 kts | 198° |
| 2026-05-04 17:12 | 41.62552 | -8.14271 | 37071 ft | 439 kts | 199° |
| 2026-05-04 17:13 | 41.47574 | -8.18453 | 37047 ft | 441 kts | 196° |
| 2026-05-04 17:14 | 41.35518 | -8.21321 | 37080 ft | 439 kts | 197° |
| 2026-05-04 17:15 | 41.26493 | -8.23588 | 37065 ft | 439 kts | 197° |
| 2026-05-04 17:16 | 41.14502 | -8.26571 | 37086 ft | 438 kts | 197° |
| 2026-05-04 17:17 | 41.02538 | -8.29509 | 37048 ft | 438 kts | 197° |
| 2026-05-04 17:18 | 40.90541 | -8.32465 | 37070 ft | 437 kts | 197° |
| 2026-05-04 17:19 | 40.78582 | -8.35387 | 37063 ft | 437 kts | 197° |
| 2026-05-04 17:20 | 40.66593 | -8.38312 | 37082 ft | 437 kts | 197° |
| 2026-05-04 17:20 | 40.57483 | -8.40530 | 37075 ft | 437 kts | 198° |
| 2026-05-04 17:21 | 40.45225 | -8.43501 | 36702 ft | 442 kts | 198° |
| 2026-05-04 17:22 | 40.42187 | -8.44240 | 36024 ft | 443 kts | 198° |
| 2026-05-04 17:22 | 40.39159 | -8.44971 | 35969 ft | 443 kts | 198° |
| 2026-05-04 17:23 | 40.30150 | -8.47132 | 34518 ft | 433 kts | 199° |
| 2026-05-04 17:23 | 40.27199 | -8.47834 | 34049 ft | 428 kts | 199° |
| 2026-05-04 17:23 | 40.21388 | -8.49222 | 32953 ft | 419 kts | 199° |
| 2026-05-04 17:24 | 40.18566 | -8.49900 | 32451 ft | 415 kts | 200° |
| 2026-05-04 17:24 | 40.10161 | -8.51919 | 30933 ft | 402 kts | 200° |
| 2026-05-04 17:25 | 40.07417 | -8.52576 | 30445 ft | 399 kts | 200° |
| 2026-05-04 17:25 | 40.01949 | -8.53498 | 29394 ft | 405 kts | 189° |
| 2026-05-04 17:26 | 39.96427 | -8.53733 | 28255 ft | 380 kts | 205° |
| 2026-05-04 17:26 | 39.89608 | -8.58073 | 26546 ft | 359 kts | 217° |
| 2026-05-04 17:27 | 39.85252 | -8.61115 | 25517 ft | 355 kts | 216° |
| 2026-05-04 17:27 | 39.80876 | -8.64154 | 24729 ft | 354 kts | 216° |
| 2026-05-04 17:28 | 39.76568 | -8.67137 | 24069 ft | 351 kts | 216° |
| 2026-05-04 17:29 | 39.70115 | -8.71580 | 22959 ft | 347 kts | 215° |
| 2026-05-04 17:29 | 39.63757 | -8.75966 | 21824 ft | 344 kts | 215° |
| 2026-05-04 17:30 | 39.57429 | -8.80323 | 20794 ft | 341 kts | 214° |
| 2026-05-04 17:31 | 39.53277 | -8.83174 | 20146 ft | 338 kts | 214° |
| 2026-05-04 17:31 | 39.47041 | -8.87439 | 19183 ft | 336 kts | 214° |
| 2026-05-04 17:32 | 39.42948 | -8.90241 | 18544 ft | 333 kts | 214° |
| 2026-05-04 17:33 | 39.36817 | -8.94432 | 17523 ft | 330 kts | 213° |
| 2026-05-04 17:33 | 39.34807 | -8.95802 | 17182 ft | 329 kts | 213° |
| 2026-05-04 17:34 | 39.28753 | -8.99930 | 16175 ft | 326 kts | 213° |
| 2026-05-04 17:34 | 39.26742 | -9.01296 | 15841 ft | 325 kts | 213° |
| 2026-05-04 17:35 | 39.21428 | -9.04898 | 14906 ft | 322 kts | 213° |
| 2026-05-04 17:35 | 39.16816 | -9.08030 | 14065 ft | 320 kts | 213° |
| 2026-05-04 17:35 | 39.14846 | -9.09369 | 13677 ft | 320 kts | 213° |
| 2026-05-04 17:36 | 39.13540 | -9.10256 | 13409 ft | 321 kts | 212° |
| 2026-05-04 17:36 | 39.11554 | -9.11602 | 13010 ft | 322 kts | 212° |
| 2026-05-04 17:36 | 39.08923 | -9.13382 | 12493 ft | 321 kts | 212° |
| 2026-05-04 17:36 | 39.07585 | -9.14285 | 12232 ft | 320 kts | 212° |
| 2026-05-04 17:37 | 39.05635 | -9.15598 | 11845 ft | 319 kts | 212° |
| 2026-05-04 17:37 | 39.03669 | -9.16923 | 11475 ft | 318 kts | 211° |
| 2026-05-04 17:37 | 39.01709 | -9.18245 | 11102 ft | 316 kts | 211° |
| 2026-05-04 17:37 | 38.99761 | -9.19559 | 10739 ft | 314 kts | 211° |
| 2026-05-04 17:38 | 38.97821 | -9.20866 | 10367 ft | 313 kts | 212° |
| 2026-05-04 17:38 | 38.95917 | -9.22150 | 10031 ft | 312 kts | 212° |
| 2026-05-04 17:38 | 38.93996 | -9.23441 | 9643 ft | 309 kts | 211° |
| 2026-05-04 17:38 | 38.92103 | -9.24712 | 9295 ft | 305 kts | 212° |
| 2026-05-04 17:39 | 38.88374 | -9.27218 | 8614 ft | 300 kts | 211° |
| 2026-05-04 17:39 | 38.86531 | -9.28459 | 8278 ft | 299 kts | 210° |
| 2026-05-04 17:39 | 38.84694 | -9.29693 | 7944 ft | 297 kts | 212° |
| 2026-05-04 17:40 | 38.82870 | -9.30916 | 7616 ft | 295 kts | 211° |
| 2026-05-04 17:40 | 38.81050 | -9.32136 | 7301 ft | 294 kts | 212° |
| 2026-05-04 17:40 | 38.79264 | -9.33335 | 6990 ft | 292 kts | 211° |
| 2026-05-04 17:40 | 38.77460 | -9.34543 | 6666 ft | 291 kts | 210° |
| 2026-05-04 17:41 | 38.75664 | -9.35742 | 6332 ft | 290 kts | 211° |
| 2026-05-04 17:41 | 38.73867 | -9.36916 | 5993 ft | 289 kts | 205° |
| 2026-05-04 17:41 | 38.71914 | -9.37412 | 5655 ft | 290 kts | 180° |
| 2026-05-04 17:41 | 38.69985 | -9.36754 | 5288 ft | 289 kts | 152° |
| 2026-05-04 17:42 | 38.68483 | -9.35074 | 4879 ft | 288 kts | 124° |
| 2026-05-04 17:42 | 38.67724 | -9.32741 | 4463 ft | 283 kts | 98° |
| 2026-05-04 17:42 | 38.67237 | -9.30316 | 4125 ft | 280 kts | 113° |
| 2026-05-04 17:42 | 38.66061 | -9.28411 | 4001 ft | 268 kts | 144° |
| 2026-05-04 17:43 | 38.64497 | -9.27334 | 4005 ft | 250 kts | 157° |
| 2026-05-04 17:43 | 38.62892 | -9.26462 | 4006 ft | 251 kts | 159° |
| 2026-05-04 17:43 | 38.61280 | -9.25582 | 4006 ft | 253 kts | 153° |
| 2026-05-04 17:43 | 38.59967 | -9.24126 | 4009 ft | 251 kts | 121° |
| 2026-05-04 17:44 | 38.59392 | -9.22067 | 3781 ft | 246 kts | 90° |
| 2026-05-04 17:44 | 38.59674 | -9.19993 | 3438 ft | 239 kts | 65° |
| 2026-05-04 17:44 | 38.60370 | -9.18075 | 3077 ft | 235 kts | 54° |
| 2026-05-04 17:44 | 38.61482 | -9.16587 | 2622 ft | 231 kts | 30° |
| 2026-05-04 17:45 | 38.62894 | -9.16045 | 2488 ft | 198 kts | 351° |
| 2026-05-04 17:45 | 38.64162 | -9.16303 | 2498 ft | 178 kts | 349° |
| 2026-05-04 17:45 | 38.65364 | -9.16505 | 2448 ft | 171 kts | 350° |
| 2026-05-04 17:45 | 38.66508 | -9.16695 | 2297 ft | 160 kts | 350° |
| 2026-05-04 17:46 | 38.67597 | -9.16876 | 2140 ft | 156 kts | 349° |
| 2026-05-04 17:46 | 38.68636 | -9.17047 | 1949 ft | 146 kts | 348° |
| 2026-05-04 17:46 | 38.69633 | -9.17208 | 1777 ft | 141 kts | 351° |
| 2026-05-04 17:46 | 38.70595 | -9.17162 | 1611 ft | 141 kts | 4° |
| 2026-05-04 17:47 | 38.71567 | -9.16886 | 1436 ft | 144 kts | 10° |
| 2026-05-04 17:47 | 38.72525 | -9.16490 | 1240 ft | 142 kts | 12° |
| 2026-05-04 17:47 | 38.73425 | -9.16059 | 1058 ft | 135 kts | 15° |
| 2026-05-04 17:47 | 38.74285 | -9.15624 | 885 ft | 132 kts | 15° |
| 2026-05-04 17:48 | 38.75135 | -9.15172 | 679 ft | 133 kts | 15° |
| 2026-05-04 17:48 | 38.75999 | -9.14713 | 507 ft | 136 kts | 17° |
| 2026-05-04 17:48 | 38.76878 | -9.14250 | 371 ft | 136 kts | 20° |
| 2026-05-04 17:48 | 38.77658 | -9.13835 | 364 ft | 99 kts | 22° |
| 2026-05-04 17:49 | 38.78142 | -9.13587 | 368 ft | 50 kts | 24° |
| 2026-05-04 17:49 | 38.78342 | -9.13394 | 364 ft | 23 kts | 54° |
| 2026-05-04 17:49 | 38.78323 | -9.13286 | 362 ft | 16 kts | 171° |
| 2026-05-04 17:49 | 38.78223 | -9.13317 | 358 ft | 14 kts | 203° |
| 2026-05-04 17:50 | 38.78147 | -9.13357 | 360 ft | 8 kts | 201° |
| 2026-05-04 17:50 | 38.78137 | -9.13362 | 360 ft | 0 kts | 201° |
| 2026-05-04 17:50 | 38.78130 | -9.13366 | 364 ft | 7 kts | 202° |
| 2026-05-04 17:50 | 38.78037 | -9.13409 | 361 ft | 15 kts | 189° |
| 2026-05-04 17:51 | 38.77925 | -9.13390 | 359 ft | 18 kts | 168° |
| 2026-05-04 17:51 | 38.77806 | -9.13357 | 356 ft | 17 kts | 168° |
| 2026-05-04 17:51 | 38.77685 | -9.13328 | 336 ft | 14 kts | 171° |
| 2026-05-04 17:51 | 38.77599 | -9.13304 | 334 ft | 12 kts | 115° |
| 2026-05-04 17:52 | 38.77606 | -9.13222 | 337 ft | 7 kts | 78° |
| 2026-05-04 17:52 | 38.77609 | -9.13198 | 333 ft | 0 kts | 78° |
| 2026-05-04 17:52 | 38.77611 | -9.13189 | 333 ft | 1 kts | 77° |
| 2026-05-04 17:52 | 38.77611 | -9.13187 | 333 ft | 0 kts | 78° |
| 2026-05-04 17:56 | 38.77611 | -9.13188 | 337 ft | 0 kts | 78° |